KOCQ

Oconto-J Douglas Bake Municipal Airport

Oconto, Wisconsin, USA
METAR KOCQ 202335Z AUTO 06003KT 10SM CLR 23/18 A2993 RMK AO1 T02260181
Observed Flight Rules
Aug-20 @ 23:35 UTC (32 minutes ago) Visual Flight Rules
Wind Visibility Clouds
60° at 3 knots 10 miles
  • Clear skies
Temperatures Readings
Current 23°C / 73°F
Dewpoint 18°C / 64°F
Humidity 74%
Altimeter 29.93" Hg
Pressure 1014 hPa
Elevation 183
METAR KOCQ 202335Z AUTO 06003KT 10SM CLR 23/18 A2993 RMK AO1 T02260181
Observed Flight Rules
Aug-20 @ 23:35 UTC
(32 minutes ago)
VFR
Wind Visibility
60° at 3 knots 10 miles
Clouds
  • Clear skies
Temperature Dewpoint
23°C / 73°F 18°C / 64°F
Humidity Altimeter Pressure
74% 29.93" Hg 1014 hPa